JAL127 RJTT-RJOO
Flight info
| Callsign | JAL127 |
|---|---|
| Flight time | 0h 56m |
| Altitude | 30000 |
| Route | LAXAS Y56 TOHME Y54 KOHWA Y546 AGPUK MIRAI ABENO IKOMA |
| Aircraft | B738/M-SDE2E3FGHIRWXY/LB1 |
Departure
| Time | 2026-05-06 03:13 |
|---|---|
| Airport | Tokyo Haneda International Airport (RJTT) |
Arrival
| Time | 2026-05-06 04:10 |
|---|---|
| Airport | Osaka Itami International Airport (RJOO) |
| Time | Latitude | Longitude | Altitude | Speed | Heading |
|---|---|---|---|---|---|
| 2026-05-06 02:57 | 35.55130 | 139.78022 | 22 ft | 0 kts | 77° |
| 2026-05-06 03:04 | 35.55129 | 139.78014 | 22 ft | 3 kts | 77° |
| 2026-05-06 03:04 | 35.55125 | 139.77990 | 25 ft | 3 kts | 78° |
| 2026-05-06 03:04 | 35.55121 | 139.77966 | 24 ft | 3 kts | 76° |
| 2026-05-06 03:05 | 35.55115 | 139.77943 | 25 ft | 3 kts | 60° |
| 2026-05-06 03:05 | 35.55106 | 139.77928 | 24 ft | 3 kts | 4° |
| 2026-05-06 03:05 | 35.55102 | 139.77927 | 25 ft | 0 kts | 329° |
| 2026-05-06 03:09 | 35.55116 | 139.77917 | 23 ft | 7 kts | 328° |
| 2026-05-06 03:09 | 35.55177 | 139.77873 | 22 ft | 12 kts | 330° |
| 2026-05-06 03:09 | 35.55237 | 139.77811 | 24 ft | 11 kts | 294° |
| 2026-05-06 03:10 | 35.55232 | 139.77723 | 22 ft | 7 kts | 290° |
| 2026-05-06 03:10 | 35.55265 | 139.77679 | 22 ft | 7 kts | 323° |
| 2026-05-06 03:10 | 35.55308 | 139.77651 | 22 ft | 8 kts | 331° |
| 2026-05-06 03:10 | 35.55367 | 139.77610 | 22 ft | 13 kts | 329° |
| 2026-05-06 03:11 | 35.55460 | 139.77545 | 23 ft | 17 kts | 330° |
| 2026-05-06 03:11 | 35.55566 | 139.77470 | 22 ft | 17 kts | 330° |
| 2026-05-06 03:11 | 35.55669 | 139.77398 | 22 ft | 17 kts | 330° |
| 2026-05-06 03:11 | 35.55750 | 139.77308 | 22 ft | 16 kts | 283° |
| 2026-05-06 03:12 | 35.55725 | 139.77238 | 23 ft | 0 kts | 221° |
| 2026-05-06 03:12 | 35.55722 | 139.77235 | 22 ft | 2 kts | 219° |
| 2026-05-06 03:12 | 35.55699 | 139.77212 | 23 ft | 7 kts | 216° |
| 2026-05-06 03:12 | 35.55643 | 139.77177 | 23 ft | 12 kts | 191° |
| 2026-05-06 03:13 | 35.55503 | 139.77261 | 24 ft | 52 kts | 150° |
| 2026-05-06 03:13 | 35.54943 | 139.77656 | 23 ft | 130 kts | 150° |
| 2026-05-06 03:13 | 35.53988 | 139.78339 | 195 ft | 178 kts | 153° |
| 2026-05-06 03:13 | 35.52910 | 139.79105 | 1228 ft | 177 kts | 152° |
| 2026-05-06 03:14 | 35.51904 | 139.79839 | 2494 ft | 162 kts | 151° |
| 2026-05-06 03:14 | 35.50902 | 139.80557 | 3347 ft | 176 kts | 152° |
| 2026-05-06 03:14 | 35.49752 | 139.81356 | 3900 ft | 202 kts | 153° |
| 2026-05-06 03:14 | 35.48474 | 139.82263 | 4368 ft | 224 kts | 153° |
| 2026-05-06 03:15 | 35.47092 | 139.83231 | 4930 ft | 240 kts | 153° |
| 2026-05-06 03:15 | 35.45566 | 139.84302 | 5440 ft | 260 kts | 153° |
| 2026-05-06 03:15 | 35.43871 | 139.85046 | 6378 ft | 259 kts | 178° |
| 2026-05-06 03:15 | 35.42099 | 139.84766 | 7304 ft | 260 kts | 201° |
| 2026-05-06 03:16 | 35.40553 | 139.83636 | 8119 ft | 265 kts | 216° |
| 2026-05-06 03:16 | 35.39079 | 139.82218 | 8974 ft | 271 kts | 217° |
| 2026-05-06 03:16 | 35.37588 | 139.80750 | 9741 ft | 279 kts | 217° |
| 2026-05-06 03:16 | 35.36045 | 139.79244 | 10351 ft | 289 kts | 217° |
| 2026-05-06 03:17 | 35.34403 | 139.77656 | 10563 ft | 310 kts | 217° |
| 2026-05-06 03:17 | 35.32653 | 139.75972 | 10699 ft | 333 kts | 217° |
| 2026-05-06 03:17 | 35.30790 | 139.74174 | 11041 ft | 346 kts | 218° |
| 2026-05-06 03:17 | 35.28923 | 139.72266 | 11564 ft | 352 kts | 220° |
| 2026-05-06 03:18 | 35.27053 | 139.70298 | 12190 ft | 355 kts | 221° |
| 2026-05-06 03:18 | 35.25209 | 139.68347 | 12868 ft | 355 kts | 221° |
| 2026-05-06 03:18 | 35.23331 | 139.66368 | 13557 ft | 355 kts | 222° |
| 2026-05-06 03:18 | 35.21455 | 139.64398 | 14170 ft | 356 kts | 222° |
| 2026-05-06 03:19 | 35.19573 | 139.62430 | 14770 ft | 355 kts | 222° |
| 2026-05-06 03:19 | 35.17688 | 139.60464 | 15308 ft | 356 kts | 223° |
| 2026-05-06 03:19 | 35.15818 | 139.58516 | 15793 ft | 358 kts | 223° |
| 2026-05-06 03:19 | 35.13919 | 139.56538 | 16306 ft | 358 kts | 223° |
| 2026-05-06 03:20 | 35.10099 | 139.52567 | 17220 ft | 361 kts | 223° |
| 2026-05-06 03:20 | 35.08337 | 139.50391 | 17661 ft | 359 kts | 235° |
| 2026-05-06 03:20 | 35.07129 | 139.47772 | 18131 ft | 358 kts | 249° |
| 2026-05-06 03:21 | 35.06461 | 139.44839 | 18567 ft | 359 kts | 257° |
| 2026-05-06 03:21 | 35.05970 | 139.41837 | 18922 ft | 360 kts | 258° |
| 2026-05-06 03:21 | 35.05505 | 139.38825 | 19265 ft | 361 kts | 258° |
| 2026-05-06 03:21 | 35.05031 | 139.35802 | 19624 ft | 362 kts | 258° |
| 2026-05-06 03:22 | 35.04542 | 139.32790 | 19966 ft | 362 kts | 257° |
| 2026-05-06 03:22 | 35.04042 | 139.29779 | 20302 ft | 362 kts | 257° |
| 2026-05-06 03:22 | 35.03532 | 139.26755 | 20619 ft | 363 kts | 257° |
| 2026-05-06 03:22 | 35.03026 | 139.23759 | 20928 ft | 363 kts | 257° |
| 2026-05-06 03:23 | 35.02520 | 139.20730 | 21251 ft | 363 kts | 257° |
| 2026-05-06 03:23 | 35.02019 | 139.17711 | 21539 ft | 364 kts | 257° |
| 2026-05-06 03:23 | 35.01523 | 139.14722 | 21820 ft | 364 kts | 257° |
| 2026-05-06 03:23 | 35.01016 | 139.11667 | 22094 ft | 365 kts | 257° |
| 2026-05-06 03:24 | 35.00510 | 139.08627 | 22392 ft | 365 kts | 257° |
| 2026-05-06 03:24 | 35.00003 | 139.05588 | 22675 ft | 364 kts | 257° |
| 2026-05-06 03:24 | 34.99495 | 139.02552 | 22907 ft | 365 kts | 257° |
| 2026-05-06 03:24 | 34.98994 | 138.99541 | 23147 ft | 366 kts | 258° |
| 2026-05-06 03:25 | 34.98656 | 138.96443 | 23393 ft | 368 kts | 264° |
| 2026-05-06 03:25 | 34.98488 | 138.93331 | 23646 ft | 367 kts | 264° |
| 2026-05-06 03:25 | 34.98336 | 138.90245 | 23809 ft | 369 kts | 264° |
| 2026-05-06 03:25 | 34.98184 | 138.87118 | 23962 ft | 370 kts | 264° |
| 2026-05-06 03:26 | 34.98029 | 138.83982 | 24169 ft | 368 kts | 263° |
| 2026-05-06 03:26 | 34.97873 | 138.80898 | 24652 ft | 360 kts | 263° |
| 2026-05-06 03:26 | 34.97716 | 138.77875 | 25074 ft | 354 kts | 263° |
| 2026-05-06 03:26 | 34.97561 | 138.74931 | 25531 ft | 348 kts | 263° |
| 2026-05-06 03:27 | 34.97406 | 138.72004 | 25995 ft | 341 kts | 262° |
| 2026-05-06 03:27 | 34.97304 | 138.70106 | 26299 ft | 336 kts | 262° |
| 2026-05-06 03:27 | 34.97152 | 138.67288 | 26770 ft | 329 kts | 262° |
| 2026-05-06 03:27 | 34.97002 | 138.64518 | 27253 ft | 323 kts | 261° |
| 2026-05-06 03:28 | 34.96855 | 138.61821 | 27743 ft | 316 kts | 261° |
| 2026-05-06 03:28 | 34.96711 | 138.59176 | 28240 ft | 308 kts | 261° |
| 2026-05-06 03:28 | 34.96570 | 138.56618 | 28739 ft | 301 kts | 260° |
| 2026-05-06 03:28 | 34.96430 | 138.54084 | 29133 ft | 297 kts | 260° |
| 2026-05-06 03:29 | 34.96291 | 138.51586 | 29530 ft | 293 kts | 260° |
| 2026-05-06 03:29 | 34.96153 | 138.49120 | 29923 ft | 288 kts | 259° |
| 2026-05-06 03:29 | 34.96016 | 138.46693 | 30219 ft | 287 kts | 259° |
| 2026-05-06 03:29 | 34.95875 | 138.44250 | 30215 ft | 293 kts | 259° |
| 2026-05-06 03:30 | 34.95730 | 138.41740 | 30212 ft | 300 kts | 259° |
| 2026-05-06 03:30 | 34.95583 | 138.39181 | 30224 ft | 305 kts | 260° |
| 2026-05-06 03:30 | 34.95282 | 138.33911 | 30229 ft | 316 kts | 260° |
| 2026-05-06 03:31 | 34.94977 | 138.28496 | 30223 ft | 326 kts | 260° |
| 2026-05-06 03:31 | 34.94652 | 138.22887 | 30229 ft | 336 kts | 260° |
| 2026-05-06 03:32 | 34.94316 | 138.17128 | 30234 ft | 344 kts | 260° |
| 2026-05-06 03:32 | 34.93974 | 138.11260 | 30222 ft | 352 kts | 260° |
| 2026-05-06 03:33 | 34.93629 | 138.05265 | 30228 ft | 359 kts | 261° |
| 2026-05-06 03:33 | 34.93269 | 137.99117 | 30212 ft | 367 kts | 260° |
| 2026-05-06 03:34 | 34.92888 | 137.92853 | 30206 ft | 372 kts | 260° |
| 2026-05-06 03:34 | 34.92510 | 137.86563 | 30202 ft | 375 kts | 260° |
| 2026-05-06 03:35 | 34.92128 | 137.80210 | 30211 ft | 379 kts | 261° |
| 2026-05-06 03:35 | 34.91757 | 137.73763 | 30215 ft | 383 kts | 261° |
| 2026-05-06 03:36 | 34.91162 | 137.67347 | 30206 ft | 381 kts | 254° |
| 2026-05-06 03:36 | 34.89500 | 137.61224 | 30197 ft | 380 kts | 247° |
| 2026-05-06 03:37 | 34.87652 | 137.55183 | 30206 ft | 381 kts | 247° |
| 2026-05-06 03:37 | 34.85820 | 137.49126 | 30191 ft | 383 kts | 248° |
| 2026-05-06 03:38 | 34.84016 | 137.42998 | 30195 ft | 384 kts | 249° |
| 2026-05-06 03:38 | 34.82281 | 137.36865 | 30195 ft | 386 kts | 249° |
| 2026-05-06 03:39 | 34.80523 | 137.30669 | 30191 ft | 386 kts | 249° |
| 2026-05-06 03:39 | 34.78763 | 137.24507 | 29899 ft | 388 kts | 249° |
| 2026-05-06 03:40 | 34.77872 | 137.21397 | 29502 ft | 387 kts | 249° |
| 2026-05-06 03:40 | 34.76985 | 137.18307 | 29098 ft | 386 kts | 249° |
| 2026-05-06 03:40 | 34.76109 | 137.15256 | 28710 ft | 385 kts | 249° |
| 2026-05-06 03:40 | 34.75224 | 137.12179 | 28326 ft | 385 kts | 249° |
| 2026-05-06 03:41 | 34.74334 | 137.09088 | 27943 ft | 384 kts | 249° |
| 2026-05-06 03:41 | 34.73449 | 137.06016 | 27528 ft | 385 kts | 249° |
| 2026-05-06 03:41 | 34.72569 | 137.02962 | 27029 ft | 388 kts | 249° |
| 2026-05-06 03:41 | 34.71673 | 136.99860 | 26544 ft | 390 kts | 249° |
| 2026-05-06 03:42 | 34.70770 | 136.96738 | 26072 ft | 392 kts | 249° |
| 2026-05-06 03:42 | 34.69860 | 136.93600 | 25605 ft | 394 kts | 249° |
| 2026-05-06 03:42 | 34.68953 | 136.90485 | 25146 ft | 395 kts | 249° |
| 2026-05-06 03:42 | 34.68030 | 136.87319 | 24690 ft | 397 kts | 249° |
| 2026-05-06 03:43 | 34.67102 | 136.84140 | 24244 ft | 398 kts | 249° |
| 2026-05-06 03:43 | 34.66174 | 136.80963 | 23787 ft | 400 kts | 249° |
| 2026-05-06 03:43 | 34.65252 | 136.77807 | 23277 ft | 401 kts | 249° |
| 2026-05-06 03:43 | 34.64311 | 136.74591 | 22748 ft | 403 kts | 249° |
| 2026-05-06 03:44 | 34.63368 | 136.71371 | 22234 ft | 405 kts | 249° |
| 2026-05-06 03:44 | 34.62433 | 136.68182 | 21735 ft | 407 kts | 249° |
| 2026-05-06 03:44 | 34.61481 | 136.64935 | 21314 ft | 407 kts | 249° |
| 2026-05-06 03:44 | 34.60531 | 136.61700 | 21048 ft | 405 kts | 249° |
| 2026-05-06 03:45 | 34.59593 | 136.58509 | 21023 ft | 397 kts | 249° |
| 2026-05-06 03:45 | 34.58673 | 136.55382 | 20984 ft | 392 kts | 249° |
| 2026-05-06 03:45 | 34.57756 | 136.52271 | 20941 ft | 387 kts | 249° |
| 2026-05-06 03:45 | 34.56865 | 136.49251 | 20918 ft | 382 kts | 249° |
| 2026-05-06 03:46 | 34.55970 | 136.46220 | 20886 ft | 379 kts | 249° |
| 2026-05-06 03:46 | 34.55081 | 136.43214 | 20843 ft | 376 kts | 249° |
| 2026-05-06 03:46 | 34.54198 | 136.40228 | 20830 ft | 373 kts | 249° |
| 2026-05-06 03:46 | 34.53332 | 136.37302 | 20790 ft | 372 kts | 249° |
| 2026-05-06 03:47 | 34.52456 | 136.34350 | 20702 ft | 373 kts | 249° |
| 2026-05-06 03:47 | 34.51584 | 136.31367 | 20667 ft | 374 kts | 252° |
| 2026-05-06 03:47 | 34.51180 | 136.28316 | 20532 ft | 357 kts | 265° |
| 2026-05-06 03:47 | 34.51346 | 136.25364 | 20292 ft | 346 kts | 275° |
| 2026-05-06 03:48 | 34.51900 | 136.22590 | 20065 ft | 341 kts | 283° |
| 2026-05-06 03:48 | 34.52826 | 136.19943 | 19834 ft | 338 kts | 292° |
| 2026-05-06 03:48 | 34.54127 | 136.17566 | 19580 ft | 339 kts | 303° |
| 2026-05-06 03:48 | 34.55804 | 136.15547 | 19354 ft | 342 kts | 314° |
| 2026-05-06 03:49 | 34.57816 | 136.13963 | 19130 ft | 347 kts | 327° |
| 2026-05-06 03:49 | 34.60061 | 136.12905 | 18898 ft | 354 kts | 339° |
| 2026-05-06 03:49 | 34.62520 | 136.12412 | 18671 ft | 360 kts | 352° |
| 2026-05-06 03:49 | 34.65019 | 136.12559 | 18453 ft | 366 kts | 5° |
| 2026-05-06 03:50 | 34.67497 | 136.13371 | 18184 ft | 371 kts | 18° |
| 2026-05-06 03:50 | 34.69787 | 136.14831 | 17920 ft | 374 kts | 32° |
| 2026-05-06 03:50 | 34.71794 | 136.16857 | 17682 ft | 376 kts | 43° |
| 2026-05-06 03:50 | 34.73505 | 136.19289 | 17421 ft | 376 kts | 55° |
| 2026-05-06 03:51 | 34.74713 | 136.22051 | 17169 ft | 375 kts | 68° |
| 2026-05-06 03:51 | 34.75619 | 136.25017 | 16928 ft | 372 kts | 71° |
| 2026-05-06 03:51 | 34.76462 | 136.27991 | 16673 ft | 370 kts | 71° |
| 2026-05-06 03:51 | 34.77314 | 136.30947 | 16422 ft | 368 kts | 71° |
| 2026-05-06 03:52 | 34.78171 | 136.33876 | 16173 ft | 366 kts | 72° |
| 2026-05-06 03:52 | 34.78611 | 136.36861 | 15911 ft | 361 kts | 89° |
| 2026-05-06 03:52 | 34.78476 | 136.39885 | 15677 ft | 355 kts | 101° |
| 2026-05-06 03:52 | 34.77930 | 136.42788 | 15434 ft | 350 kts | 110° |
| 2026-05-06 03:53 | 34.76996 | 136.45499 | 15196 ft | 344 kts | 121° |
| 2026-05-06 03:53 | 34.75676 | 136.47895 | 14962 ft | 339 kts | 133° |
| 2026-05-06 03:53 | 34.73999 | 136.49888 | 14722 ft | 334 kts | 145° |
| 2026-05-06 03:53 | 34.72054 | 136.51395 | 14491 ft | 328 kts | 157° |
| 2026-05-06 03:54 | 34.69966 | 136.52382 | 14275 ft | 324 kts | 168° |
| 2026-05-06 03:54 | 34.67754 | 136.52872 | 14030 ft | 320 kts | 178° |
| 2026-05-06 03:54 | 34.65551 | 136.52852 | 13772 ft | 316 kts | 189° |
| 2026-05-06 03:54 | 34.63395 | 136.52337 | 13514 ft | 313 kts | 199° |
| 2026-05-06 03:55 | 34.61376 | 136.51355 | 13247 ft | 310 kts | 209° |
| 2026-05-06 03:55 | 34.59566 | 136.49956 | 12991 ft | 308 kts | 219° |
| 2026-05-06 03:55 | 34.58050 | 136.48176 | 12720 ft | 307 kts | 235° |
| 2026-05-06 03:55 | 34.57081 | 136.45886 | 12459 ft | 306 kts | 251° |
| 2026-05-06 03:56 | 34.56474 | 136.43394 | 12183 ft | 306 kts | 254° |
| 2026-05-06 03:56 | 34.55936 | 136.40919 | 11913 ft | 306 kts | 255° |
| 2026-05-06 03:56 | 34.55400 | 136.38409 | 11638 ft | 307 kts | 254° |
| 2026-05-06 03:56 | 34.54859 | 136.35905 | 11372 ft | 307 kts | 254° |
| 2026-05-06 03:57 | 34.54310 | 136.33401 | 11110 ft | 307 kts | 253° |
| 2026-05-06 03:57 | 34.53762 | 136.30929 | 10847 ft | 306 kts | 253° |
| 2026-05-06 03:57 | 34.53203 | 136.28430 | 10580 ft | 307 kts | 253° |
| 2026-05-06 03:57 | 34.52638 | 136.25922 | 10318 ft | 308 kts | 252° |
| 2026-05-06 03:58 | 34.52072 | 136.23410 | 10074 ft | 306 kts | 252° |
| 2026-05-06 03:58 | 34.51512 | 136.20933 | 9815 ft | 303 kts | 252° |
| 2026-05-06 03:58 | 34.50962 | 136.18504 | 9545 ft | 300 kts | 252° |
| 2026-05-06 03:58 | 34.50410 | 136.16066 | 9290 ft | 296 kts | 252° |
| 2026-05-06 03:59 | 34.49866 | 136.13670 | 9044 ft | 293 kts | 252° |
| 2026-05-06 03:59 | 34.49332 | 136.11322 | 8783 ft | 291 kts | 253° |
| 2026-05-06 03:59 | 34.48847 | 136.08954 | 8519 ft | 288 kts | 262° |
| 2026-05-06 03:59 | 34.49000 | 136.06549 | 8260 ft | 287 kts | 283° |
| 2026-05-06 04:00 | 34.49616 | 136.04268 | 8014 ft | 283 kts | 287° |
| 2026-05-06 04:00 | 34.50266 | 136.02029 | 7768 ft | 278 kts | 287° |
| 2026-05-06 04:00 | 34.50898 | 135.99847 | 7480 ft | 277 kts | 287° |
| 2026-05-06 04:00 | 34.51534 | 135.97621 | 7116 ft | 278 kts | 287° |
| 2026-05-06 04:01 | 34.52162 | 135.95396 | 6768 ft | 279 kts | 287° |
| 2026-05-06 04:01 | 34.52791 | 135.93152 | 6395 ft | 281 kts | 287° |
| 2026-05-06 04:01 | 34.53413 | 135.90926 | 6048 ft | 281 kts | 287° |
| 2026-05-06 04:01 | 34.54042 | 135.88667 | 5675 ft | 282 kts | 287° |
| 2026-05-06 04:02 | 34.54670 | 135.86406 | 5325 ft | 280 kts | 287° |
| 2026-05-06 04:02 | 34.55274 | 135.84223 | 4970 ft | 272 kts | 287° |
| 2026-05-06 04:02 | 34.55870 | 135.82073 | 4598 ft | 266 kts | 287° |
| 2026-05-06 04:02 | 34.56453 | 135.79966 | 4238 ft | 260 kts | 287° |
| 2026-05-06 04:03 | 34.57022 | 135.77906 | 3878 ft | 255 kts | 287° |
| 2026-05-06 04:03 | 34.57584 | 135.75871 | 3536 ft | 252 kts | 287° |
| 2026-05-06 04:03 | 34.58128 | 135.73898 | 3426 ft | 248 kts | 287° |
| 2026-05-06 04:03 | 34.58675 | 135.71911 | 3417 ft | 247 kts | 287° |
| 2026-05-06 04:04 | 34.59220 | 135.69934 | 3397 ft | 245 kts | 287° |
| 2026-05-06 04:04 | 34.59762 | 135.68004 | 3397 ft | 236 kts | 288° |
| 2026-05-06 04:04 | 34.60284 | 135.66162 | 3391 ft | 224 kts | 288° |
| 2026-05-06 04:04 | 34.61040 | 135.64555 | 3351 ft | 226 kts | 316° |
| 2026-05-06 04:05 | 34.62233 | 135.63365 | 3424 ft | 221 kts | 317° |
| 2026-05-06 04:05 | 34.63328 | 135.62061 | 3398 ft | 214 kts | 313° |
| 2026-05-06 04:05 | 34.64329 | 135.60821 | 3404 ft | 198 kts | 314° |
| 2026-05-06 04:05 | 34.65292 | 135.59643 | 3315 ft | 197 kts | 314° |
| 2026-05-06 04:06 | 34.66244 | 135.58489 | 3070 ft | 191 kts | 314° |
| 2026-05-06 04:06 | 34.67150 | 135.57391 | 2848 ft | 176 kts | 314° |
| 2026-05-06 04:06 | 34.67997 | 135.56363 | 2580 ft | 167 kts | 315° |
| 2026-05-06 04:06 | 34.68794 | 135.55395 | 2380 ft | 158 kts | 315° |
| 2026-05-06 04:07 | 34.69561 | 135.54467 | 2145 ft | 153 kts | 315° |
| 2026-05-06 04:07 | 34.70311 | 135.53555 | 1971 ft | 153 kts | 315° |
| 2026-05-06 04:07 | 34.71066 | 135.52640 | 1777 ft | 153 kts | 315° |
| 2026-05-06 04:07 | 34.71817 | 135.51731 | 1549 ft | 151 kts | 316° |
| 2026-05-06 04:08 | 34.72557 | 135.50853 | 1375 ft | 151 kts | 315° |
| 2026-05-06 04:08 | 34.73300 | 135.49932 | 1148 ft | 153 kts | 315° |
| 2026-05-06 04:08 | 34.74049 | 135.49026 | 963 ft | 151 kts | 316° |
| 2026-05-06 04:08 | 34.74786 | 135.48123 | 754 ft | 150 kts | 316° |
| 2026-05-06 04:09 | 34.75529 | 135.47217 | 586 ft | 152 kts | 316° |
| 2026-05-06 04:09 | 34.76277 | 135.46311 | 382 ft | 150 kts | 317° |
| 2026-05-06 04:09 | 34.77005 | 135.45439 | 151 ft | 146 kts | 317° |
| 2026-05-06 04:09 | 34.77696 | 135.44606 | 41 ft | 121 kts | 315° |
| 2026-05-06 04:10 | 34.78133 | 135.44091 | 49 ft | 42 kts | 326° |
| 2026-05-06 04:10 | 34.78301 | 135.43999 | 48 ft | 11 kts | 350° |
| 2026-05-06 04:10 | 34.78379 | 135.43996 | 47 ft | 12 kts | 4° |
| 2026-05-06 04:10 | 34.78455 | 135.44023 | 46 ft | 11 kts | 25° |
| 2026-05-06 04:11 | 34.78519 | 135.44077 | 45 ft | 11 kts | 42° |
| 2026-05-06 04:11 | 34.78582 | 135.44153 | 44 ft | 14 kts | 45° |
| 2026-05-06 04:11 | 34.78673 | 135.44200 | 46 ft | 16 kts | 337° |
| 2026-05-06 04:11 | 34.78762 | 135.44103 | 46 ft | 18 kts | 314° |
| 2026-05-06 04:12 | 34.78852 | 135.43994 | 48 ft | 18 kts | 315° |
| 2026-05-06 04:12 | 34.78909 | 135.43956 | 46 ft | 8 kts | 11° |
| 2026-05-06 04:12 | 34.78957 | 135.43993 | 48 ft | 9 kts | 25° |
| 2026-05-06 04:12 | 34.79023 | 135.44031 | 49 ft | 8 kts | 25° |
| 2026-05-06 04:13 | 34.79024 | 135.44032 | 49 ft | 0 kts | 25° |